Time;durP1;ratioP1;P1;durP2;ratioP2;P2;SDS_P1;SDS_P2;PMS_P1;PMS_P2;Temp;Humidity;BMP_temperature;BMP_pressure;BME280_temperature;BME280_humidity;BME280_pressure;Samples;Min_cycle;Max_cycle;Signal;HPM_P1;HPM_P2
2023/01/04 00:02:04;;;;;;;41.13;21.47;;;10.10;91.00;;;;;;5039137;28;20760;-80
2023/01/04 00:04:32;;;;;;;39.37;20.17;;;10.00;90.90;;;;;;5044245;28;20656;-81
2023/01/04 00:07:00;;;;;;;41.07;19.67;;;10.00;90.90;;;;;;5045649;28;20254;-82
2023/01/04 00:09:29;;;;;;;37.43;21.47;;;10.00;90.90;;;;;;5052124;28;20208;-80
2023/01/04 00:12:01;;;;;;;39.87;21.77;;;10.00;91.00;;;;;;5054940;28;20199;-81
2023/01/04 00:14:29;;;;;;;41.40;21.63;;;9.90;90.90;;;;;;5051344;28;20229;-80
2023/01/04 00:16:58;;;;;;;40.93;22.13;;;9.90;91.20;;;;;;5045635;28;20223;-81
2023/01/04 00:19:27;;;;;;;44.97;21.87;;;9.80;91.20;;;;;;5046170;28;20210;-81
2023/01/04 00:21:56;;;;;;;43.00;20.27;;;9.80;91.20;;;;;;5046437;28;20207;-81
2023/01/04 00:24:24;;;;;;;38.27;21.27;;;9.80;91.20;;;;;;5050360;28;20199;-81
2023/01/04 00:26:53;;;;;;;43.27;22.60;;;9.80;91.30;;;;;;5050851;28;20203;-81
2023/01/04 00:29:21;;;;;;;47.93;22.97;;;9.80;91.30;;;;;;5046677;28;20195;-80
2023/01/04 00:31:49;;;;;;;42.80;21.30;;;9.80;91.40;;;;;;5050443;28;20221;-81
2023/01/04 00:34:18;;;;;;;40.03;22.90;;;9.80;91.70;;;;;;5041679;28;20220;-80
2023/01/04 00:36:48;;;;;;;45.97;25.17;;;9.70;91.40;;;;;;5046522;28;20198;-81
2023/01/04 00:39:17;;;;;;;43.37;23.83;;;9.80;91.50;;;;;;5043732;28;20198;-82
2023/01/04 00:41:47;;;;;;;49.27;24.47;;;9.80;91.50;;;;;;5046884;28;20211;-81
2023/01/04 00:44:27;;;;;;;51.00;27.45;;;9.70;91.50;;;;;;5047043;28;20448;-82
2023/01/04 00:46:56;;;;;;;43.37;24.57;;;9.70;91.60;;;;;;5045789;28;20206;-82
2023/01/04 00:49:24;;;;;;;45.63;24.00;;;9.70;91.60;;;;;;5048131;28;20205;-81
2023/01/04 00:51:55;;;;;;;49.73;25.67;;;9.70;91.60;;;;;;5048122;28;20191;-81
2023/01/04 00:54:23;;;;;;;45.87;24.63;;;9.70;91.60;;;;;;5047270;28;20752;-82
2023/01/04 00:56:52;;;;;;;44.40;22.90;;;9.70;91.70;;;;;;5046757;28;20219;-81
2023/01/04 00:59:21;;;;;;;47.13;24.77;;;9.70;91.70;;;;;;5044959;28;20199;-81
2023/01/04 01:01:51;;;;;;;48.77;25.00;;;9.70;91.60;;;;;;5044361;28;20685;-83
2023/01/04 01:04:21;;;;;;;43.60;22.97;;;9.70;91.60;;;;;;5048165;28;20203;-83
2023/01/04 01:06:51;;;;;;;45.00;23.00;;;9.70;91.60;;;;;;5047389;28;20195;-82
2023/01/04 01:09:22;;;;;;;40.10;23.43;;;9.70;91.70;;;;;;5048724;28;20652;-82
2023/01/04 01:11:51;;;;;;;49.72;27.38;;;9.70;91.70;;;;;;5048991;28;20983;-82
2023/01/04 01:14:22;;;;;;;49.13;25.33;;;9.60;92.00;;;;;;5043888;28;20241;-79
2023/01/04 01:16:50;;;;;;;44.47;24.57;;;9.60;92.00;;;;;;5045435;28;20853;-80
2023/01/04 01:19:24;;;;;;;41.93;24.03;;;9.60;92.00;;;;;;5042034;28;20690;-83
2023/01/04 01:21:53;;;;;;;43.13;23.87;;;9.60;92.00;;;;;;5041027;28;20211;-81
2023/01/04 01:24:22;;;;;;;43.63;22.93;;;9.50;91.90;;;;;;5046837;28;20261;-82
2023/01/04 01:26:51;;;;;;;41.23;23.70;;;9.50;91.90;;;;;;5038487;28;20207;-82
2023/01/04 01:29:19;;;;;;;45.63;24.07;;;9.50;91.90;;;;;;5043300;28;20265;-80
2023/01/04 01:31:47;;;;;;;46.00;24.23;;;9.50;91.80;;;;;;5039886;28;20210;-82
2023/01/04 01:34:16;;;;;;;47.73;23.87;;;9.50;91.80;;;;;;5039841;28;20216;-82
2023/01/04 01:36:44;;;;;;;44.73;23.53;;;9.50;91.80;;;;;;5044962;28;20209;-82
2023/01/04 01:39:13;;;;;;;43.07;23.50;;;9.50;91.80;;;;;;5040611;28;20196;-82
2023/01/04 01:41:43;;;;;;;45.57;22.80;;;9.50;91.80;;;;;;5041230;28;20191;-82
2023/01/04 01:44:44;;;;;;;44.27;21.53;;;9.50;91.80;;;;;;5039908;28;20191;-84
2023/01/04 01:47:15;;;;;;;43.73;22.60;;;9.50;91.90;;;;;;5044417;28;20198;-83
2023/01/04 01:49:45;;;;;;;45.00;22.53;;;9.50;92.20;;;;;;5041679;28;20196;-82
2023/01/04 01:52:18;;;;;;;40.97;22.47;;;9.50;91.80;;;;;;5040400;28;21903;-81
2023/01/04 01:54:49;;;;;;;49.03;24.13;;;9.50;91.90;;;;;;5039666;28;20738;-83
2023/01/04 01:57:22;;;;;;;51.53;23.60;;;9.50;91.90;;;;;;5042129;28;20660;-82
2023/01/04 01:59:54;;;;;;;48.97;24.20;;;9.50;91.90;;;;;;5045129;28;20221;-82
2023/01/04 02:02:22;;;;;;;44.00;23.77;;;9.50;91.90;;;;;;5046368;28;20244;-82
2023/01/04 02:04:52;;;;;;;37.60;23.20;;;9.50;91.90;;;;;;5044148;28;20191;-82
2023/01/04 02:07:25;;;;;;;42.13;22.63;;;9.50;92.00;;;;;;5051325;28;20631;-82
2023/01/04 02:09:55;;;;;;;39.30;22.83;;;9.50;92.00;;;;;;5049086;28;20222;-82
2023/01/04 02:12:25;;;;;;;43.60;23.63;;;9.50;92.00;;;;;;5043590;28;20199;-83
2023/01/04 02:14:54;;;;;;;44.90;23.80;;;9.50;92.10;;;;;;5043898;28;20212;-83
2023/01/04 02:17:34;;;;;;;41.77;23.00;;;9.60;92.20;;;;;;5046386;28;20290;-83
2023/01/04 02:20:19;;;;;;;37.83;21.20;;;9.60;92.20;;;;;;5046705;28;20201;-82
2023/01/04 02:23:36;;;;;;;43.13;22.97;;;9.60;92.20;;;;;;5048343;28;20199;-82
2023/01/04 02:26:32;;;;;;;39.70;22.70;;;9.60;92.30;;;;;;5046969;28;20199;-83
2023/01/04 02:29:35;;;;;;;45.60;23.30;;;9.60;92.30;;;;;;5044263;28;20655;-81
2023/01/04 02:32:12;;;;;;;38.77;21.63;;;9.60;92.30;;;;;;5030997;28;20528;-83
2023/01/04 02:34:47;;;;;;;43.83;23.40;;;9.60;92.30;;;;;;5045729;28;20579;-81
2023/01/04 02:37:29;;;;;;;43.93;23.73;;;9.70;92.40;;;;;;5046084;28;20828;-81
2023/01/04 02:40:06;;;;;;;41.83;21.47;;;9.60;92.30;;;;;;5046930;28;20194;-83
2023/01/04 02:45:36;;;;;;;42.17;23.77;;;9.70;92.40;;;;;;5047425;28;20195;-84
2023/01/04 02:50:55;;;;;;;39.73;21.90;;;9.70;92.50;;;;;;5046888;28;20207;-82
2023/01/04 02:53:29;;;;;;;45.87;23.43;;;9.80;92.50;;;;;;5042661;28;20720;-83
2023/01/04 02:56:14;;;;;;;40.13;22.63;;;9.80;92.50;;;;;;5044636;28;20219;-81
2023/01/04 02:59:04;;;;;;;38.27;20.87;;;9.80;92.50;;;;;;5042118;28;20199;-83
2023/01/04 03:07:39;;;;;;;39.30;21.70;;;9.90;92.60;;;;;;5049142;28;20697;-83
2023/01/04 03:10:14;;;;;;;41.07;21.07;;;9.90;92.60;;;;;;5051023;28;20249;-83
2023/01/04 03:12:46;;;;;;;36.97;21.30;;;9.90;92.60;;;;;;5048129;28;20537;-83
2023/01/04 03:15:19;;;;;;;40.10;20.50;;;10.00;92.60;;;;;;5045723;28;20207;-82
2023/01/04 03:17:52;;;;;;;39.03;21.50;;;10.00;92.70;;;;;;5046718;28;20241;-82
2023/01/04 03:20:23;;;;;;;36.87;19.90;;;10.00;92.60;;;;;;5044615;28;20192;-82
2023/01/04 03:37:11;;;;;;;39.97;21.17;;;10.10;92.60;;;;;;5047554;28;20191;-83
2023/01/04 03:48:30;;;;;;;39.17;21.57;;;10.20;92.70;;;;;;5047611;28;20203;-83
2023/01/04 03:51:15;;;;;;;38.13;20.93;;;10.20;92.70;;;;;;5046246;28;20199;-83
2023/01/04 03:53:55;;;;;;;35.70;20.40;;;10.20;92.70;;;;;;5049744;28;20206;-83
2023/01/04 03:56:26;;;;;;;41.93;24.13;;;10.20;92.70;;;;;;5044501;28;20452;-83
2023/01/04 03:58:55;;;;;;;41.77;21.70;;;10.20;93.10;;;;;;5041391;28;20519;-83
2023/01/04 04:01:26;;;;;;;43.93;22.90;;;10.20;93.00;;;;;;5049414;28;20199;-83
2023/01/04 04:09:29;;;;;;;38.40;21.73;;;10.20;92.90;;;;;;5050212;28;20191;-83
2023/01/04 04:11:58;;;;;;;40.97;20.97;;;10.30;92.90;;;;;;5049830;28;20191;-83
2023/01/04 04:14:26;;;;;;;38.20;22.17;;;10.30;92.90;;;;;;5047751;28;20871;-82
2023/01/04 04:16:55;;;;;;;39.33;21.53;;;10.30;93.00;;;;;;5052213;28;20628;-81
2023/01/04 04:19:23;;;;;;;41.67;21.90;;;10.30;93.00;;;;;;5047769;28;20638;-83
2023/01/04 04:21:52;;;;;;;43.47;22.77;;;10.30;93.00;;;;;;5046840;28;20194;-82
2023/01/04 04:24:23;;;;;;;42.63;20.13;;;10.30;93.00;;;;;;5045324;28;20203;-81
2023/01/04 04:26:54;;;;;;;41.90;21.33;;;10.30;92.90;;;;;;5049838;28;20214;-83
2023/01/04 04:29:23;;;;;;;36.83;21.53;;;10.40;93.00;;;;;;5043764;28;20195;-82
2023/01/04 04:32:00;;;;;;;40.27;22.67;;;10.40;93.00;;;;;;5044264;28;20202;-83
2023/01/04 04:34:28;;;;;;;40.57;20.93;;;10.40;93.00;;;;;;5040864;28;20195;-83
2023/01/04 04:36:57;;;;;;;41.43;21.33;;;10.40;93.00;;;;;;5048613;28;20226;-83
2023/01/04 04:39:25;;;;;;;43.40;21.50;;;10.40;93.00;;;;;;5044805;28;20281;-83
2023/01/04 04:41:54;;;;;;;38.33;21.17;;;10.40;93.00;;;;;;5049075;28;20609;-83
2023/01/04 04:44:22;;;;;;;44.47;22.23;;;10.40;93.00;;;;;;5042633;28;20674;-83
2023/01/04 04:46:51;;;;;;;41.90;21.83;;;10.40;93.00;;;;;;5045879;28;20203;-83
2023/01/04 04:49:20;;;;;;;38.67;20.53;;;10.50;93.00;;;;;;5046738;28;20218;-83
2023/01/04 04:51:48;;;;;;;36.83;22.37;;;10.40;93.00;;;;;;5050292;28;20214;-84
2023/01/04 04:54:19;;;;;;;38.73;22.33;;;10.50;93.00;;;;;;5046185;28;20199;-83
2023/01/04 04:56:48;;;;;;;40.30;22.20;;;10.50;93.00;;;;;;5049495;28;20205;-84
2023/01/04 04:59:18;;;;;;;39.40;21.70;;;10.40;93.00;;;;;;5043095;28;20282;-84
2023/01/04 05:01:49;;;;;;;45.57;23.53;;;10.40;93.00;;;;;;5049231;28;20343;-83
2023/01/04 05:04:18;;;;;;;45.60;23.50;;;10.50;93.00;;;;;;5050227;28;20192;-83
2023/01/04 05:06:48;;;;;;;45.05;26.40;;;10.50;93.00;;;;;;5045886;28;20447;-83
2023/01/04 05:09:17;;;;;;;43.77;22.87;;;10.50;93.20;;;;;;5046400;28;20233;-82
2023/01/04 05:14:33;;;;;;;46.37;24.53;;;10.50;93.20;;;;;;5055516;28;20565;-83
2023/01/04 05:17:01;;;;;;;43.17;21.40;;;10.50;93.10;;;;;;5063595;28;20215;-84
2023/01/04 05:19:30;;;;;;;47.88;25.63;;;10.50;93.10;;;;;;5045048;28;20441;-82
2023/01/04 05:21:58;;;;;;;44.93;23.70;;;10.50;93.40;;;;;;5045644;28;20195;-84
2023/01/04 05:24:27;;;;;;;39.90;21.30;;;10.50;93.30;;;;;;5054919;28;20683;-83
2023/01/04 05:26:55;;;;;;;38.03;21.13;;;10.50;93.30;;;;;;5065371;28;20196;-83
2023/01/04 05:32:29;;;;;;;42.55;23.95;;;10.60;93.30;;;;;;5048937;28;20449;-83
2023/01/04 05:34:57;;;;;;;42.27;23.20;;;10.60;93.60;;;;;;5051297;28;20191;-83
2023/01/04 05:37:26;;;;;;;38.43;20.87;;;10.60;93.60;;;;;;5052979;28;20219;-82
2023/01/04 05:39:54;;;;;;;44.23;23.13;;;10.60;93.50;;;;;;5047855;28;20199;-82
2023/01/04 05:42:26;;;;;;;41.95;22.60;;;10.60;93.50;;;;;;5046891;28;20928;-83
2023/01/04 05:44:56;;;;;;;38.13;21.67;;;10.60;93.40;;;;;;5050264;28;20734;-84
2023/01/04 05:47:25;;;;;;;39.27;21.40;;;10.60;93.40;;;;;;5049531;28;20606;-82
2023/01/04 05:49:56;;;;;;;35.27;20.17;;;10.70;93.40;;;;;;5053448;28;20286;-82
2023/01/04 05:52:24;;;;;;;39.53;21.33;;;10.70;93.40;;;;;;5051399;28;20203;-82
2023/01/04 05:54:52;;;;;;;42.60;22.33;;;10.70;93.30;;;;;;5047016;28;20261;-82
2023/01/04 05:57:21;;;;;;;40.83;22.47;;;10.70;93.30;;;;;;5049848;28;20230;-82
2023/01/04 05:59:49;;;;;;;41.00;23.13;;;10.80;93.30;;;;;;5049720;28;20252;-82
2023/01/04 06:02:20;;;;;;;41.57;22.33;;;10.80;93.30;;;;;;5052992;28;20214;-82
2023/01/04 06:04:49;;;;;;;41.53;23.10;;;10.80;93.30;;;;;;5051758;28;20437;-82
2023/01/04 06:07:27;;;;;;;37.37;21.30;;;10.80;93.30;;;;;;5053174;28;20248;-83
2023/01/04 06:09:56;;;;;;;37.23;20.73;;;10.80;93.30;;;;;;5043321;28;20601;-82
2023/01/04 06:12:24;;;;;;;41.70;21.77;;;10.90;93.30;;;;;;5050169;28;20631;-82
2023/01/04 06:14:53;;;;;;;42.17;22.33;;;10.90;93.30;;;;;;5048414;28;20207;-82
2023/01/04 06:17:22;;;;;;;38.37;21.03;;;10.90;93.30;;;;;;5055389;28;20233;-83
2023/01/04 06:19:50;;;;;;;42.47;22.03;;;10.90;93.20;;;;;;5051709;28;20191;-83
2023/01/04 06:22:19;;;;;;;40.83;21.57;;;10.90;93.20;;;;;;5056033;28;20222;-81
2023/01/04 06:24:49;;;;;;;36.40;20.70;;;10.90;93.20;;;;;;5045214;28;20593;-84
2023/01/04 06:27:24;;;;;;;35.27;19.97;;;10.90;93.20;;;;;;5045421;28;20192;-83
2023/01/04 06:29:53;;;;;;;39.07;21.13;;;11.00;93.20;;;;;;5049643;28;20205;-87
2023/01/04 06:32:27;;;;;;;38.87;22.17;;;11.00;93.10;;;;;;5048199;28;20195;-89
2023/01/04 06:35:01;;;;;;;34.53;20.30;;;11.00;93.10;;;;;;5050141;28;20207;-83
2023/01/04 06:37:29;;;;;;;42.40;20.63;;;11.00;93.10;;;;;;5048157;28;20265;-83
2023/01/04 06:39:59;;;;;;;38.27;21.43;;;11.00;93.10;;;;;;5045091;28;20199;-83
2023/01/04 06:45:45;;;;;;;40.40;21.97;;;11.10;93.00;;;;;;5010393;28;20202;-87
2023/01/04 06:48:14;;;;;;;42.87;22.17;;;11.20;93.00;;;;;;5046562;28;20230;-79
2023/01/04 06:50:45;;;;;;;47.73;26.60;;;11.10;92.90;;;;;;5048677;28;20512;-82
2023/01/04 06:53:14;;;;;;;50.00;23.40;;;11.10;92.90;;;;;;5045386;28;20843;-80
2023/01/04 06:55:45;;;;;;;40.37;23.07;;;11.10;92.90;;;;;;5051427;28;20546;-81
2023/01/04 06:58:13;;;;;;;43.87;23.50;;;11.20;92.90;;;;;;5049823;28;20211;-81
2023/01/04 07:00:41;;;;;;;46.13;23.87;;;11.10;92.80;;;;;;5045716;28;20237;-81
2023/01/04 07:03:10;;;;;;;45.90;24.17;;;11.20;92.90;;;;;;5048291;28;20235;-82
2023/01/04 07:05:43;;;;;;;39.67;23.60;;;11.20;92.80;;;;;;5051925;28;20205;-82
2023/01/04 07:08:12;;;;;;;45.57;24.67;;;11.20;92.80;;;;;;5046042;28;20245;-81
2023/01/04 07:10:41;;;;;;;48.37;24.83;;;11.20;92.80;;;;;;5043342;28;20195;-82
2023/01/04 07:13:11;;;;;;;46.37;23.73;;;11.30;92.90;;;;;;5043901;28;20258;-82
2023/01/04 07:15:42;;;;;;;47.67;25.07;;;11.30;92.90;;;;;;5049220;28;20248;-83
2023/01/04 07:18:35;;;;;;;43.90;24.43;;;11.30;92.80;;;;;;5046887;28;20211;-87
2023/01/04 07:21:07;;;;;;;43.40;24.40;;;11.40;92.80;;;;;;5050495;28;20195;-84
2023/01/04 07:23:35;;;;;;;44.83;24.07;;;11.50;92.80;;;;;;5039536;28;20199;-84
2023/01/04 07:26:08;;;;;;;47.80;24.83;;;11.50;92.70;;;;;;5049096;28;20203;-83
2023/01/04 07:31:31;;;;;;;45.57;24.20;;;11.60;92.70;;;;;;5037225;28;20618;-79
2023/01/04 07:34:00;;;;;;;47.63;26.10;;;11.60;92.70;;;;;;5045671;28;20255;-82
2023/01/04 07:36:31;;;;;;;42.80;23.73;;;11.60;92.60;;;;;;5045844;28;20199;-83
2023/01/04 07:39:00;;;;;;;42.50;23.03;;;11.70;92.60;;;;;;5041778;28;20747;-81
2023/01/04 07:41:29;;;;;;;48.67;25.00;;;11.70;92.60;;;;;;5043629;28;20200;-81
2023/01/04 07:44:00;;;;;;;44.50;23.50;;;11.70;92.60;;;;;;5041980;28;20203;-84
2023/01/04 07:46:28;;;;;;;41.63;21.87;;;11.80;92.60;;;;;;5042971;28;20562;-83
2023/01/04 07:49:04;;;;;;;42.80;22.83;;;11.80;92.60;;;;;;5042094;28;20195;-84
2023/01/04 07:51:33;;;;;;;43.43;23.67;;;11.80;92.60;;;;;;5044552;28;20252;-85
2023/01/04 07:54:02;;;;;;;43.27;22.73;;;11.80;92.50;;;;;;5045408;28;20207;-83
2023/01/04 07:56:35;;;;;;;42.13;22.23;;;11.80;92.50;;;;;;5046973;28;20199;-84
2023/01/04 07:59:07;;;;;;;44.03;22.30;;;11.90;92.50;;;;;;5041749;28;20246;-82
2023/01/04 08:01:40;;;;;;;44.13;23.23;;;11.90;92.50;;;;;;5045506;28;20206;-82
2023/01/04 08:15:35;;;;;;;41.30;21.90;;;12.10;92.50;;;;;;5046308;28;20245;-81
2023/01/04 08:18:04;;;;;;;36.67;19.97;;;12.10;92.50;;;;;;5043493;28;20215;-81
2023/01/04 08:20:35;;;;;;;35.47;21.30;;;12.20;92.40;;;;;;5044078;28;20231;-85
2023/01/04 08:23:03;;;;;;;41.63;22.13;;;12.20;92.40;;;;;;5046508;28;20195;-85
2023/01/04 08:25:33;;;;;;;37.90;20.87;;;12.30;92.40;;;;;;5039041;28;20207;-84
2023/01/04 08:28:01;;;;;;;37.53;19.37;;;12.30;92.40;;;;;;5038881;28;20195;-83
2023/01/04 08:30:30;;;;;;;31.37;15.43;;;12.40;92.40;;;;;;5043648;28;20207;-84
2023/01/04 08:33:00;;;;;;;24.67;14.03;;;12.40;92.40;;;;;;5043215;28;20202;-84
2023/01/04 08:35:28;;;;;;;24.47;12.60;;;12.50;92.40;;;;;;5041510;28;20248;-84
2023/01/04 08:37:57;;;;;;;21.97;11.77;;;12.60;92.40;;;;;;5047819;28;20215;-84
2023/01/04 08:40:45;;;;;;;25.77;11.97;;;12.60;92.30;;;;;;5040346;28;20239;-85
2023/01/04 08:43:28;;;;;;;27.87;13.43;;;12.70;92.00;;;;;;5045689;28;20252;-85
2023/01/04 08:45:57;;;;;;;25.87;12.57;;;12.70;91.90;;;;;;5044796;28;20218;-86
2023/01/04 08:48:27;;;;;;;24.17;11.73;;;12.80;91.80;;;;;;5049512;28;20199;-87
2023/01/04 08:50:59;;;;;;;23.13;11.63;;;12.80;91.70;;;;;;5043945;28;20191;-85
2023/01/04 08:53:28;;;;;;;20.93;10.63;;;12.80;91.60;;;;;;5041450;28;20187;-85
2023/01/04 08:55:57;;;;;;;23.80;10.17;;;12.80;91.60;;;;;;5043568;28;20207;-83
2023/01/04 08:58:25;;;;;;;18.13;10.10;;;12.90;91.30;;;;;;5045998;28;20218;-82
2023/01/04 09:00:59;;;;;;;19.20;9.00;;;12.90;91.30;;;;;;5040017;28;20203;-87
2023/01/04 09:03:29;;;;;;;16.07;9.13;;;13.00;91.00;;;;;;5044447;28;20199;-85
2023/01/04 09:06:03;;;;;;;15.43;8.67;;;12.90;90.60;;;;;;5046056;28;20252;-86
2023/01/04 09:08:32;;;;;;;14.40;8.50;;;13.00;90.70;;;;;;5049538;28;20207;-83
2023/01/04 09:11:05;;;;;;;18.97;8.50;;;13.00;90.20;;;;;;5045669;28;20559;-82
2023/01/04 09:13:34;;;;;;;19.43;7.83;;;12.90;89.50;;;;;;5038031;28;20600;-82
2023/01/04 09:16:03;;;;;;;14.90;7.63;;;13.00;89.50;;;;;;5045801;28;20567;-85
2023/01/04 09:18:34;;;;;;;14.00;7.17;;;13.00;89.60;;;;;;5045816;28;20683;-84
2023/01/04 09:21:06;;;;;;;14.33;8.23;;;13.00;87.90;;;;;;5044463;28;20605;-83
2023/01/04 09:23:34;;;;;;;13.73;7.70;;;13.00;87.30;;;;;;5041730;28;20191;-83
2023/01/04 09:26:06;;;;;;;15.37;7.03;;;13.10;87.60;;;;;;5041028;28;20192;-82
2023/01/04 09:28:37;;;;;;;13.30;6.80;;;13.10;86.80;;;;;;5044610;28;20187;-83
2023/01/04 09:31:06;;;;;;;14.37;6.87;;;13.10;86.60;;;;;;5045983;28;20652;-83
2023/01/04 09:33:36;;;;;;;12.80;7.07;;;13.10;86.10;;;;;;5041722;28;20628;-82
2023/01/04 09:36:25;;;;;;;13.13;7.83;;;13.10;86.20;;;;;;5041758;28;20199;-81
2023/01/04 09:38:54;;;;;;;11.13;6.87;;;13.10;86.10;;;;;;5045467;28;20206;-83
2023/01/04 09:41:26;;;;;;;10.07;5.70;;;13.10;85.50;;;;;;5042213;28;20261;-82
2023/01/04 09:43:57;;;;;;;9.50;5.57;;;13.10;85.60;;;;;;5040281;28;20199;-82
2023/01/04 09:46:34;;;;;;;11.30;5.60;;;13.00;84.20;;;;;;5043232;28;20310;-80
2023/01/04 09:49:15;;;;;;;10.33;5.23;;;13.10;84.50;;;;;;5047272;28;20238;-83
2023/01/04 09:51:49;;;;;;;9.47;5.40;;;13.10;84.20;;;;;;5046881;28;20214;-81
2023/01/04 09:54:21;;;;;;;12.30;5.77;;;13.10;84.30;;;;;;5047302;28;20191;-85
2023/01/04 09:56:52;;;;;;;12.60;5.77;;;13.20;84.70;;;;;;5041493;28;20667;-84
2023/01/04 09:59:27;;;;;;;7.67;4.63;;;13.10;84.10;;;;;;5045144;28;20207;-80
2023/01/04 10:01:59;;;;;;;9.00;5.63;;;13.20;83.60;;;;;;5041416;28;20445;-84
2023/01/04 10:04:45;;;;;;;7.97;4.30;;;13.20;83.40;;;;;;5045337;28;20203;-82
2023/01/04 10:07:21;;;;;;;9.33;4.57;;;13.10;82.20;;;;;;5045438;28;20198;-83
2023/01/04 10:09:50;;;;;;;11.20;4.73;;;13.10;82.60;;;;;;5040008;28;20199;-81
2023/01/04 10:12:41;;;;;;;9.43;4.37;;;13.10;81.80;;;;;;5046190;28;20207;-83
2023/01/04 10:15:24;;;;;;;13.27;5.13;;;13.20;82.20;;;;;;5040996;28;20264;-86
2023/01/04 10:18:14;;;;;;;12.50;5.07;;;13.10;81.20;;;;;;5038854;28;20195;-80
2023/01/04 10:21:14;;;;;;;8.97;4.17;;;13.10;80.90;;;;;;5052306;28;20198;-81
2023/01/04 10:24:13;;;;;;;7.40;3.70;;;13.10;80.60;;;;;;5052123;28;20195;-83
2023/01/04 10:26:46;;;;;;;7.37;3.77;;;13.00;80.80;;;;;;5054125;28;20655;-83
2023/01/04 10:29:38;;;;;;;9.60;3.60;;;13.10;80.50;;;;;;5052004;28;20192;-79
2023/01/04 10:32:19;;;;;;;7.30;3.30;;;13.10;80.20;;;;;;5049032;28;20838;-83
2023/01/04 10:34:48;;;;;;;6.13;3.30;;;13.10;80.10;;;;;;5047970;28;20195;-83
2023/01/04 10:37:20;;;;;;;6.10;3.33;;;13.10;80.30;;;;;;5045784;28;20228;-85
2023/01/04 10:39:53;;;;;;;8.47;3.17;;;13.10;80.60;;;;;;5049811;28;20671;-86
2023/01/04 10:42:31;;;;;;;5.50;3.00;;;13.10;80.30;;;;;;5049072;28;20196;-81
2023/01/04 10:45:10;;;;;;;5.73;3.07;;;13.20;80.50;;;;;;5051299;28;20201;-80
2023/01/04 10:47:48;;;;;;;5.00;3.30;;;13.10;79.60;;;;;;5042123;28;20647;-82
2023/01/04 10:50:22;;;;;;;6.07;3.37;;;13.00;79.60;;;;;;5052041;28;20192;-80
2023/01/04 10:52:58;;;;;;;4.43;2.70;;;13.00;79.40;;;;;;5050734;28;20269;-83
2023/01/04 10:55:33;;;;;;;5.20;3.00;;;13.00;80.00;;;;;;5049782;28;20192;-80
2023/01/04 10:58:08;;;;;;;4.57;3.27;;;13.10;80.50;;;;;;5045380;28;20248;-83
2023/01/04 11:00:46;;;;;;;6.37;3.23;;;13.10;79.90;;;;;;5044737;28;20221;-83
2023/01/04 11:03:22;;;;;;;4.10;2.53;;;13.10;80.10;;;;;;5043111;28;20230;-79
2023/01/04 11:05:55;;;;;;;11.07;3.77;;;13.10;79.70;;;;;;5048680;28;20290;-84
2023/01/04 11:08:32;;;;;;;8.10;3.30;;;13.20;80.00;;;;;;5048523;28;20546;-82
2023/01/04 11:11:06;;;;;;;9.02;3.85;;;13.20;79.80;;;;;;5043697;28;20449;-86
2023/01/04 11:13:34;;;;;;;5.93;3.60;;;13.20;80.00;;;;;;5043568;28;20202;-83
2023/01/04 11:16:08;;;;;;;6.83;3.53;;;13.20;79.80;;;;;;5048936;28;20576;-84
2023/01/04 11:18:41;;;;;;;7.13;3.80;;;13.20;79.90;;;;;;5046948;28;20199;-83
2023/01/04 11:21:13;;;;;;;6.00;3.83;;;13.30;80.30;;;;;;5048096;28;20187;-84
2023/01/04 11:23:48;;;;;;;7.27;3.47;;;13.30;79.70;;;;;;5042915;28;20195;-85
2023/01/04 11:26:26;;;;;;;8.27;3.80;;;13.30;79.40;;;;;;5051744;28;20644;-87
2023/01/04 11:29:53;;;;;;;8.70;3.93;;;13.30;79.40;;;;;;5042221;28;20198;-86
2023/01/04 11:51:59;;;;;;;7.33;4.20;;;13.40;79.40;;;;;;5042049;28;20229;-86
2023/01/04 12:04:26;;;;;;;10.33;4.90;;;13.50;79.70;;;;;;4957440;28;20209;-87
2023/01/04 12:07:16;;;;;;;11.07;4.90;;;13.40;79.60;;;;;;4957197;28;20201;-87
2023/01/04 12:09:49;;;;;;;8.97;4.70;;;13.40;79.40;;;;;;5045493;28;20195;-86
2023/01/04 12:12:36;;;;;;;7.90;4.07;;;13.40;79.30;;;;;;5045520;28;20198;-87
2023/01/04 12:15:27;;;;;;;6.43;4.17;;;13.40;79.10;;;;;;5044389;28;20569;-86
2023/01/04 12:18:04;;;;;;;6.70;4.10;;;13.30;79.10;;;;;;5044170;28;20702;-86
2023/01/04 12:20:44;;;;;;;9.10;3.97;;;13.30;79.30;;;;;;5046483;28;20218;-86
2023/01/04 12:23:19;;;;;;;7.47;3.97;;;13.30;79.20;;;;;;5052163;28;20190;-86
2023/01/04 12:25:59;;;;;;;6.70;4.40;;;13.30;79.10;;;;;;5002682;28;20838;-86
2023/01/04 12:28:57;;;;;;;6.50;3.50;;;13.30;79.30;;;;;;5040685;28;20199;-87
2023/01/04 12:31:36;;;;;;;7.80;3.40;;;13.20;78.80;;;;;;5047431;28;20207;-88
2023/01/04 12:34:49;;;;;;;8.57;3.83;;;13.20;78.90;;;;;;5046894;28;20195;-87
2023/01/04 12:37:58;;;;;;;9.07;4.67;;;13.20;79.30;;;;;;5041614;28;20214;-86
2023/01/04 12:41:00;;;;;;;8.10;4.47;;;13.20;79.40;;;;;;5047087;28;20223;-86
2023/01/04 12:43:39;;;;;;;7.07;4.43;;;13.20;79.70;;;;;;5031645;28;20212;-87
2023/01/04 12:50:00;;;;;;;5.50;3.37;;;13.20;79.20;;;;;;5038678;28;20195;-87
2023/01/04 12:52:42;;;;;;;5.30;3.40;;;13.10;78.70;;;;;;4993795;28;20214;-87
2023/01/04 12:56:04;;;;;;;9.03;3.87;;;13.10;79.30;;;;;;5043566;28;20273;-86
2023/01/04 12:59:14;;;;;;;9.60;5.20;;;13.10;80.20;;;;;;5049503;28;20205;-85
2023/01/04 13:02:19;;;;;;;9.00;4.17;;;13.10;79.60;;;;;;5050209;28;20227;-85
2023/01/04 13:05:05;;;;;;;13.23;6.07;;;13.20;79.80;;;;;;5043599;28;20199;-87
2023/01/04 13:08:08;;;;;;;9.13;5.17;;;13.20;80.00;;;;;;5047249;28;20199;-86
2023/01/04 13:10:45;;;;;;;8.67;4.60;;;13.20;80.00;;;;;;5048257;28;20202;-86
2023/01/04 13:13:33;;;;;;;7.50;4.40;;;13.20;80.00;;;;;;5043975;28;20218;-86
2023/01/04 13:16:20;;;;;;;7.87;4.33;;;13.10;79.90;;;;;;5049684;28;20789;-86
2023/01/04 13:19:02;;;;;;;10.40;4.70;;;13.10;80.00;;;;;;5044124;28;20187;-88
2023/01/04 13:21:45;;;;;;;7.47;4.13;;;13.10;80.00;;;;;;5043947;28;20225;-85
2023/01/04 13:24:24;;;;;;;9.07;4.80;;;13.10;80.30;;;;;;5044969;28;20210;-87
2023/01/04 13:27:04;;;;;;;8.37;4.77;;;13.10;80.10;;;;;;5043410;28;20191;-83
2023/01/04 13:29:47;;;;;;;9.90;5.50;;;13.20;80.50;;;;;;5042448;28;20595;-86
2023/01/04 13:32:23;;;;;;;12.37;5.07;;;13.10;80.20;;;;;;5043003;28;20561;-84
2023/01/04 13:34:54;;;;;;;10.07;5.27;;;13.10;80.30;;;;;;5053634;28;20628;-83
2023/01/04 13:37:31;;;;;;;12.17;5.53;;;13.10;80.20;;;;;;5042682;28;20206;-84
2023/01/04 13:40:17;;;;;;;8.83;5.57;;;13.00;80.30;;;;;;5045132;28;20214;-82
2023/01/04 13:42:48;;;;;;;9.97;5.53;;;13.00;80.60;;;;;;5050335;28;20560;-84
2023/01/04 13:45:41;;;;;;;8.57;5.23;;;12.90;80.60;;;;;;5050527;28;20568;-84
2023/01/04 13:48:13;;;;;;;9.73;5.10;;;12.90;80.80;;;;;;5041730;28;20301;-83
2023/01/04 13:50:46;;;;;;;9.97;5.63;;;12.90;80.80;;;;;;5041110;28;20640;-83
2023/01/04 13:53:21;;;;;;;13.33;6.23;;;12.80;80.90;;;;;;5054482;28;20190;-83
2023/01/04 13:55:52;;;;;;;14.17;6.53;;;12.80;81.10;;;;;;5061174;28;20195;-84
2023/01/04 13:58:22;;;;;;;11.10;5.40;;;12.80;81.30;;;;;;5060524;28;20654;-83
2023/01/04 14:00:56;;;;;;;15.53;6.47;;;12.70;81.50;;;;;;5065951;28;20230;-83
2023/01/04 14:03:41;;;;;;;13.33;6.80;;;12.70;81.80;;;;;;5073299;28;20187;-83
2023/01/04 14:06:21;;;;;;;11.57;5.60;;;12.70;81.90;;;;;;5059687;28;20201;-84
2023/01/04 14:08:58;;;;;;;10.27;5.73;;;12.60;82.10;;;;;;4998578;28;20727;-84
2023/01/04 14:14:23;;;;;;;13.30;6.53;;;12.50;82.50;;;;;;5041895;28;20198;-83
2023/01/04 14:17:29;;;;;;;12.00;5.97;;;12.50;82.60;;;;;;5059947;28;20620;-86
2023/01/04 14:19:59;;;;;;;14.67;7.17;;;12.50;82.80;;;;;;5036097;28;20636;-81
2023/01/04 14:22:40;;;;;;;11.87;6.23;;;12.40;82.90;;;;;;5057492;28;20175;-82
2023/01/04 14:25:39;;;;;;;13.90;5.47;;;12.40;82.90;;;;;;5050894;28;20202;-81
2023/01/04 14:28:28;;;;;;;10.83;6.20;;;12.40;83.00;;;;;;5051026;28;20262;-84
2023/01/04 14:31:12;;;;;;;11.83;5.90;;;12.40;83.20;;;;;;5036539;28;20191;-83
2023/01/04 14:33:44;;;;;;;13.73;6.73;;;12.40;83.20;;;;;;5050031;28;20198;-82
2023/01/04 14:36:17;;;;;;;17.60;8.20;;;12.30;83.20;;;;;;5018928;28;20219;-81
2023/01/04 14:38:49;;;;;;;14.13;6.80;;;12.30;83.30;;;;;;5047156;28;20191;-83
2023/01/04 14:41:22;;;;;;;11.20;5.90;;;12.30;83.30;;;;;;5003851;28;20225;-84
2023/01/04 14:43:53;;;;;;;13.27;6.67;;;12.30;83.40;;;;;;5046709;28;20195;-82
2023/01/04 14:46:32;;;;;;;12.63;6.50;;;12.30;83.40;;;;;;5048428;28;20191;-85
2023/01/04 14:49:02;;;;;;;13.37;6.40;;;12.20;83.40;;;;;;5047001;28;20613;-80
2023/01/04 14:51:36;;;;;;;10.77;6.60;;;12.20;83.40;;;;;;5045276;28;20258;-81
2023/01/04 14:54:05;;;;;;;9.37;5.53;;;12.20;83.40;;;;;;5048403;28;20202;-83